Latest Weather Observations for Shepparton

IDV60801

Issued at 1:02 pm EST Friday 26 August 2016 (issued every 30 minutes, with the page automatically refreshed every 10 minutes)

About weather observations | Map of weather stations | Latest weather observations for VIC | Other Formats
Station Details ID: 081125 Name: SHEPPARTON AIRPORT Lat: -36.43 Lon: 145.39 Height: 113.9 m
Data from the previous 72 hours. | See also: Recent months at Shepparton
Date/Time
EST
Temp
°C
App
Temp
°C
Dew
Point
°C
Rel
Hum
%
Delta-T
°C
Wind Press
QNH
hPa
Press
MSL
hPa
Rain since
9am
mm
Dir  Spd
km/h
Gust
km/h
Spd
kts
Gust
kts
26/01:00pm 12.6 9.4 5.1 60 3.5 W 11 17 6 9 1021.5 1021.7 0.2
26/12:30pm 10.9 7.1 3.7 61 3.2 SSW 13 20 7 11 1022.0 1022.2 0.2
26/12:00pm 11.1 7.3 4.1 62 3.1 SW 13 20 7 11 1022.4 1022.6 0.2
26/11:30am 10.9 7.1 3.7 61 3.2 S 13 20 7 11 1022.5 1022.7 0.2
26/11:00am 11.1 6.9 3.6 60 3.3 S 15 20 8 11 1022.7 1022.9 0.2
26/10:30am 10.5 6.3 4.0 64 2.9 SW 15 20 8 11 1022.6 1022.8 0.0
26/10:00am 10.2 6.7 5.4 72 2.2 SSW 13 17 7 9 1022.6 1022.8 0.0
26/09:30am 9.2 7.5 6.1 81 1.4 S 4 9 2 5 1022.8 1023.0 0.0
26/09:00am 7.7 5.0 5.7 87 0.9 SW 9 13 5 7 1022.7 1022.9 1.8
26/08:30am 6.0 3.9 5.6 97 0.2 WSW 6 7 3 4 1022.7 1022.9 1.8
26/08:00am 4.4 3.1 4.3 99 0.0 CALM 0 0 0 0 1022.7 1022.9 1.8
26/07:30am 2.9 1.4 2.8 99 0.0 CALM 0 0 0 0 1022.4 1022.6 1.8
26/07:00am 1.8 -2.0 1.7 99 0.0 WSW 11 13 6 7 1021.9 1022.1 1.8
26/06:30am 1.5 -0.3 1.4 99 0.0 CALM 0 0 0 0 1021.5 1021.7 1.8
26/06:00am 1.7 0.0 1.6 99 0.0 CALM 0 0 0 0 1021.3 1021.5 1.8
26/05:30am 1.2 -1.8 1.1 99 0.0 WSW 6 7 3 4 1020.8 1021.0 1.8
26/05:00am 1.0 -2.0 0.9 99 0.0 WSW 6 7 3 4 1020.4 1020.6 1.8
26/04:30am 2.0 -1.0 1.9 99 0.0 SW 7 7 4 4 1020.3 1020.5 1.8
26/04:00am 2.8 1.2 2.7 99 0.0 CALM 0 0 0 0 1020.0 1020.2 1.8
26/03:30am 2.1 -0.9 2.0 99 0.0 SW 7 9 4 5 1019.7 1019.8 1.8
26/03:00am 2.5 -1.6 2.4 99 0.0 WSW 13 15 7 8 1019.7 1019.8 1.8
26/02:30am 2.0 -1.8 1.9 99 0.0 WSW 11 11 6 6 1019.7 1019.8 1.8
26/02:00am 2.3 0.7 2.2 99 0.0 CALM 0 0 0 0 1019.9 1020.0 1.8
26/01:30am 2.3 0.7 2.2 99 0.0 CALM 0 0 0 0 1019.9 1020.0 1.8
26/01:00am 3.1 1.6 2.8 98 0.1 CALM 0 0 0 0 1019.8 1019.9 1.8
26/12:30am 3.7 2.3 3.6 99 0.0 CALM 0 0 0 0 1019.6 1019.7 1.8
26/12:00am 3.9 0.4 3.6 98 0.1 SW 11 13 6 7 1019.5 1019.6 1.8
 
Date/Time
EST
Temp
°C
App
Temp
°C
Dew
Point
°C
Rel
Hum
%
Delta-T
°C
Wind Press
QNH
hPa
Press
MSL
hPa
Rain since
9am
mm
Dir  Spd
km/h
Gust
km/h
Spd
kts
Gust
kts
25/11:30pm 3.7 0.2 3.6 99 0.0 WSW 11 13 6 7 1019.5 1019.6 1.8
25/11:00pm 3.9 0.8 3.6 98 0.1 SW 9 9 5 5 1019.4 1019.5 1.8
25/10:30pm 4.6 1.9 3.6 93 0.4 WSW 7 9 4 5 1019.3 1019.4 1.8
25/10:00pm 5.9 2.9 4.2 89 0.7 SSW 9 11 5 6 1019.0 1019.2 1.8
25/09:30pm 6.2 2.1 4.4 88 0.8 SSW 15 17 8 9 1018.7 1018.9 1.8
25/09:00pm 5.7 4.1 4.3 91 0.6 SSW 2 11 1 6 1018.6 1018.8 1.8
25/08:30pm 5.4 3.7 4.1 91 0.6 SSW 2 6 1 3 1018.4 1018.6 1.8
25/08:00pm 6.3 3.9 4.1 86 0.9 WSW 6 9 3 5 1017.9 1018.1 1.8
25/07:30pm 7.3 4.9 4.3 81 1.3 SSW 6 9 3 5 1017.5 1017.7 1.8
25/07:00pm 7.4 4.1 4.4 81 1.3 SSW 11 15 6 8 1017.2 1017.4 1.8
25/06:30pm 8.0 3.9 4.6 79 1.5 SSW 15 19 8 10 1016.7 1016.9 1.8
25/06:00pm 8.5 4.5 5.1 79 1.5 S 15 20 8 11 1016.5 1016.7 1.8
25/05:30pm 9.9 4.2 4.7 70 2.3 S 24 32 13 17 1016.0 1016.2 1.8
25/05:00pm 11.6 5.6 3.1 56 3.7 SSW 24 39 13 21 1015.4 1015.6 1.8
25/04:30pm 12.1 5.7 3.1 54 4.0 SSW 26 37 14 20 1015.1 1015.3 1.8
25/04:00pm 12.4 6.4 3.4 54 4.0 SW 24 35 13 19 1014.9 1015.1 1.8
25/03:30pm 12.4 6.9 4.1 57 3.8 SSW 22 30 12 16 1014.8 1015.0 1.8
25/03:00pm 12.4 7.1 4.9 60 3.5 SSW 22 30 12 16 1014.8 1015.0 1.8
25/02:30pm 12.6 6.7 3.8 55 4.0 WSW 24 35 13 19 1014.5 1014.7 1.8
25/02:00pm 11.9 6.7 3.7 57 3.7 SW 20 32 11 17 1014.4 1014.6 1.8
25/01:30pm 11.9 5.8 4.9 62 3.2 SSW 26 32 14 17 1014.4 1014.6 1.8
25/01:00pm 10.7 6.1 5.7 71 2.3 SW 19 26 10 14 1014.7 1014.9 1.8
25/12:30pm 9.3 6.0 6.6 83 1.3 SW 13 17 7 9 1015.1 1015.3 1.8
25/12:19pm 8.4 4.7 6.5 88 0.9 SSW 15 26 8 14 1015.3 1015.5 1.8
25/12:06pm 7.2 0.0 5.7 90 0.7 SSW 33 44 18 24 1015.5 1015.7 1.6
25/12:00pm 7.2 0.1 5.5 89 0.8 SSW 32 44 17 24 1015.5 1015.7 0.6
25/11:30am 10.6 5.1 3.9 63 3.0 S 22 30 12 16 1015.0 1015.2 0.0
25/11:00am 10.6 5.0 5.6 71 2.3 SSW 24 32 13 17 1015.2 1015.4 0.0
25/10:30am 10.3 4.3 5.3 71 2.3 SSW 26 35 14 19 1015.1 1015.3 0.0
25/10:00am 9.4 4.8 5.6 77 1.7 SW 19 26 10 14 1015.0 1015.2 0.0
25/09:30am 8.9 4.7 5.8 81 1.4 SW 17 20 9 11 1015.0 1015.2 0.0
25/09:00am 7.9 4.0 5.4 84 1.1 SW 15 19 8 10 1015.0 1015.2 0.0
25/08:30am 6.7 3.5 4.9 88 0.8 SW 11 13 6 7 1014.8 1015.0 0.0
25/08:00am 5.3 2.3 4.1 92 0.5 WSW 9 13 5 7 1014.4 1014.6 0.0
25/07:30am 4.1 0.6 3.4 95 0.3 SW 11 15 6 8 1014.1 1014.3 0.0
25/07:00am 3.5 -0.1 3.2 98 0.1 SW 11 15 6 8 1013.9 1014.1 0.0
25/06:30am 3.6 0.1 3.3 98 0.1 WSW 11 15 6 8 1013.5 1013.7 0.0
25/06:00am 4.2 0.3 3.6 96 0.2 SW 13 15 7 8 1013.1 1013.3 0.0
25/05:30am 4.4 -0.1 4.0 97 0.2 SW 17 20 9 11 1012.9 1013.1 0.0
25/05:00am 4.6 0.4 4.0 96 0.3 SW 15 22 8 12 1012.6 1012.7 0.0
25/04:30am 4.8 0.7 4.4 97 0.2 SW 15 20 8 11 1012.5 1012.6 0.0
25/04:00am 4.5 0.8 4.4 99 0.0 SW 13 17 7 9 1012.5 1012.6 0.0
25/03:30am 4.3 0.5 4.0 98 0.1 SW 13 15 7 8 1012.5 1012.6 0.0
25/03:00am 4.5 0.7 3.8 95 0.3 SW 13 17 7 9 1012.5 1012.6 0.0
25/02:30am 4.8 0.9 3.6 92 0.5 SW 13 17 7 9 1012.4 1012.5 0.0
25/02:00am 5.2 1.4 3.9 91 0.6 SSW 13 17 7 9 1012.4 1012.5 0.0
25/01:30am 5.5 1.8 4.2 91 0.6 SW 13 19 7 10 1012.5 1012.6 0.0
25/01:00am 5.8 1.3 4.3 90 0.6 SW 17 24 9 13 1012.6 1012.7 0.0
25/12:30am 5.3 1.2 4.3 93 0.4 SW 15 19 8 10 1012.6 1012.7 0.0
25/12:00am 5.9 1.9 4.7 92 0.5 SW 15 20 8 11 1012.6 1012.7 0.0
 
Date/Time
EST
Temp
°C
App
Temp
°C
Dew
Point
°C
Rel
Hum
%
Delta-T
°C
Wind Press
QNH
hPa
Press
MSL
hPa
Rain since
9am
mm
Dir  Spd
km/h
Gust
km/h
Spd
kts
Gust
kts
24/11:30pm 6.2 2.2 4.8 91 0.6 SW 15 19 8 10 1012.5 1012.6 0.0
24/11:00pm 6.6 2.2 4.9 89 0.7 SSW 17 22 9 12 1012.5 1012.6 0.0
24/10:30pm 6.8 2.5 5.1 89 0.8 SSW 17 24 9 13 1012.3 1012.4 0.0
24/10:00pm 7.0 2.3 5.3 89 0.8 SSW 19 22 10 12 1012.4 1012.5 0.0
24/09:30pm 7.3 3.0 5.1 86 1.0 SSW 17 22 9 12 1012.5 1012.6 0.0
24/09:00pm 7.7 2.9 5.5 86 1.0 SSW 20 26 11 14 1012.4 1012.5 0.0
24/08:30pm 8.2 3.5 5.1 81 1.4 SSW 19 24 10 13 1012.2 1012.3 0.0
24/08:00pm 8.2 3.8 4.6 78 1.6 SSW 17 22 9 12 1012.2 1012.3 0.0
24/07:30pm 8.6 4.2 4.6 76 1.8 SSW 17 22 9 12 1012.1 1012.2 0.0
24/07:00pm 8.9 4.8 4.5 74 2.0 SW 15 20 8 11 1011.9 1012.0 0.0
24/06:30pm 9.9 5.5 4.5 69 2.4 SW 17 26 9 14 1011.6 1011.7 0.0
24/06:00pm 10.4 6.5 5.2 70 2.4 SW 15 19 8 10 1011.5 1011.6 0.0
24/05:30pm 11.8 8.4 5.7 66 2.9 SW 13 19 7 10 1011.2 1011.3 0.0
24/05:00pm 12.7 8.5 5.6 62 3.3 SW 17 20 9 11 1011.2 1011.3 0.0
24/04:30pm 13.3 9.4 5.5 59 3.7 SW 15 19 8 10 1011.0 1011.1 0.0
24/04:00pm 13.5 9.6 5.2 57 3.9 S 15 19 8 10 1011.0 1011.1 0.0
24/03:30pm 13.7 9.4 5.3 57 4.0 S 17 20 9 11 1011.1 1011.2 0.0
24/03:00pm 13.6 9.7 5.3 57 3.9 SW 15 20 8 11 1011.2 1011.3 0.0
24/02:30pm 13.5 10.1 6.1 61 3.5 S 13 17 7 9 1011.4 1011.5 0.0
24/02:00pm 13.3 10.2 7.1 66 3.0 SSW 13 20 7 11 1011.7 1011.8 0.0
24/01:30pm 12.9 10.0 6.3 64 3.2 SSW 11 15 6 8 1011.9 1012.0 0.0
24/01:00pm 12.1 9.1 5.9 66 2.9 SSW 11 17 6 9 1012.2 1012.3 0.0
24/12:30pm 12.1 10.2 7.4 73 2.3 S 7 11 4 6 1012.6 1012.7 0.0
24/12:00pm 11.2 9.3 6.5 73 2.2 SW 6 11 3 6 1013.2 1013.4 0.0
24/11:30am 10.2 8.9 6.0 75 2.0 SW 2 7 1 4 1013.9 1014.1 0.0
24/11:00am 9.5 8.1 5.7 77 1.7 SSE 2 7 1 4 1014.1 1014.3 0.0
24/10:30am 9.0 6.3 5.7 80 1.5 SSE 9 13 5 7 1014.2 1014.4 0.0
24/10:00am 8.2 5.5 5.5 83 1.2 SSE 9 13 5 7 1014.3 1014.5 0.0
24/09:30am 7.3 4.1 5.1 86 1.0 S 11 13 6 7 1014.7 1014.9 0.0
24/09:00am 6.5 2.9 5.0 90 0.7 S 13 17 7 9 1014.8 1015.0 0.0
24/08:30am 5.6 2.7 4.7 94 0.4 SSE 9 11 5 6 1014.9 1015.1 0.0
24/08:00am 3.9 2.2 3.8 99 0.0 S 2 6 1 3 1015.0 1015.2 0.0
24/07:30am 2.7 1.1 2.6 99 0.0 CALM 0 7 0 4 1015.0 1015.2 0.0
24/07:00am 2.3 0.3 2.2 99 0.0 S 2 7 1 4 1014.8 1015.0 0.0
24/06:30am 2.4 0.8 2.3 99 0.0 CALM 0 0 0 0 1014.9 1015.1 0.0
24/06:00am 2.8 1.2 2.7 99 0.0 CALM 0 0 0 0 1014.6 1014.8 0.0
24/05:30am 2.3 -0.5 2.2 99 0.0 S 6 9 3 5 1014.6 1014.8 0.0
24/05:00am 2.6 1.0 2.5 99 0.0 CALM 0 0 0 0 1014.7 1014.9 0.0
24/04:30am 2.4 -0.4 2.3 99 0.0 S 6 7 3 4 1014.5 1014.7 0.0
24/04:00am 2.8 1.2 2.7 99 0.0 CALM 0 6 0 3 1014.5 1014.7 0.0
24/03:30am 2.9 1.4 2.8 99 0.0 CALM 0 0 0 0 1014.7 1014.9 0.0
24/03:00am 3.2 0.6 3.1 99 0.0 S 6 9 3 5 1014.7 1014.9 0.0
24/02:30am 3.5 0.9 3.4 99 0.0 S 6 9 3 5 1015.0 1015.2 0.0
24/02:00am 3.6 1.8 3.5 99 0.0 S 2 6 1 3 1015.6 1015.8 0.0
24/01:30am 3.9 2.5 3.6 98 0.1 CALM 0 0 0 0 1015.8 1016.0 0.0
24/01:00am 4.5 3.2 3.9 96 0.3 CALM 0 0 0 0 1015.7 1015.9 0.0
24/12:30am 4.5 3.1 3.8 95 0.3 CALM 0 0 0 0 1015.8 1016.0 0.0
24/12:00am 4.7 3.0 4.0 95 0.3 S 2 6 1 3 1016.1 1016.3 0.0
 
Date/Time
EST
Temp
°C
App
Temp
°C
Dew
Point
°C
Rel
Hum
%
Delta-T
°C
Wind Press
QNH
hPa
Press
MSL
hPa
Rain since
9am
mm
Dir  Spd
km/h
Gust
km/h
Spd
kts
Gust
kts
23/11:30pm 4.6 2.4 3.4 92 0.5 SSW 4 7 2 4 1016.3 1016.5 0.0
23/11:00pm 4.8 1.3 3.3 90 0.6 SW 11 11 6 6 1016.4 1016.6 0.0
23/10:30pm 5.4 2.4 3.9 90 0.6 SW 9 9 5 5 1016.5 1016.7 0.0
23/10:00pm 5.5 2.9 4.2 91 0.6 SW 7 9 4 5 1016.4 1016.6 0.0
23/09:30pm 5.6 2.7 4.4 92 0.5 SW 9 13 5 7 1016.4 1016.6 0.0
23/09:00pm 5.9 4.5 5.5 97 0.2 SW 2 9 1 5 1016.4 1016.6 0.0
23/08:30pm 6.8 5.9 5.9 94 0.4 CALM 0 0 0 0 1016.3 1016.5 0.0
23/08:00pm 6.9 5.2 6.0 94 0.4 WSW 4 7 2 4 1016.1 1016.3 0.0
23/07:30pm 7.5 6.5 5.8 89 0.8 CALM 0 0 0 0 1016.2 1016.4 0.0
23/07:00pm 9.0 8.3 7.1 88 0.9 CALM 0 0 0 0 1016.0 1016.2 0.0
23/06:30pm 9.4 7.3 6.5 82 1.4 S 7 9 4 5 1015.7 1015.9 0.0
23/06:00pm 10.0 6.7 6.2 77 1.8 SSW 13 15 7 8 1015.5 1015.7 0.0
23/05:30pm 11.6 8.2 6.1 69 2.6 S 13 19 7 10 1015.6 1015.8 0.0
23/05:00pm 12.7 9.2 7.0 68 2.8 S 15 20 8 11 1015.6 1015.8 0.0
23/04:30pm 13.3 9.2 6.4 63 3.3 S 17 22 9 12 1015.6 1015.8 0.0
23/04:00pm 13.9 10.1 6.0 59 3.8 SW 15 20 8 11 1015.6 1015.8 0.0
23/03:30pm 14.0 11.2 7.1 63 3.4 SSE 11 15 6 8 1015.6 1015.8 0.0
23/03:00pm 13.4 10.4 6.0 61 3.5 WSW 11 17 6 9 1015.6 1015.8 0.0
23/02:30pm 14.0 11.8 5.4 56 4.1 SW 6 13 3 7 1016.0 1016.2 0.0
23/02:00pm 13.9 11.7 6.0 59 3.8 SSW 7 13 4 7 1015.9 1016.1 0.0
23/01:30pm 13.4 10.9 4.6 55 4.1 SE 7 13 4 7 1015.5 1015.7 0.0

Other Formats:

Comma delimited format used in spreadsheet applications
http://www.bom.gov.au/fwo/IDV60801/IDV60801.94875.axf

JavaScript Object Notation format (JSON) in row-major order
http://www.bom.gov.au/fwo/IDV60801/IDV60801.94875.json